createdAt,value
2023-01-25T00:00:31.076Z,6.30
2023-01-25T00:01:33.941Z,6.80
2023-01-25T00:02:37.032Z,6.15
2023-01-25T00:03:40.659Z,7.10
2023-01-25T00:04:43.616Z,6.40
2023-01-25T00:05:46.579Z,6.93
2023-01-25T00:06:50.223Z,5.80
2023-01-25T00:07:53.461Z,6.87
2023-01-25T00:08:56.377Z,6.80
2023-01-25T00:09:59.334Z,7.12
2023-01-25T00:11:02.418Z,6.82
2023-01-25T00:12:05.720Z,6.70
2023-01-25T00:13:08.759Z,6.20
2023-01-25T00:14:12.726Z,6.55
2023-01-25T00:15:15.816Z,6.30
2023-01-25T00:16:19.126Z,6.45
2023-01-25T00:17:22.196Z,6.62
2023-01-25T00:18:28.648Z,6.32
2023-01-25T00:19:31.800Z,7.22
2023-01-25T00:20:34.728Z,7.00
2023-01-25T00:21:38.096Z,7.60
2023-01-25T00:22:41.482Z,8.02
2023-01-25T00:23:44.767Z,7.85
2023-01-25T00:24:47.924Z,8.05
2023-01-25T00:25:58.653Z,9.30
2023-01-25T00:27:02.531Z,7.53
2023-01-25T00:28:05.511Z,9.50
2023-01-25T00:29:09.110Z,8.63
2023-01-25T00:30:12.883Z,9.27
2023-01-25T00:31:22.528Z,9.52
2023-01-25T00:32:38.130Z,9.43
2023-01-25T00:33:51.826Z,10.05
2023-01-25T00:34:54.655Z,9.77
2023-01-25T00:35:57.823Z,9.85
2023-01-25T00:37:24.023Z,9.75
2023-01-25T00:38:35.459Z,9.80
2023-01-25T00:39:39.504Z,9.17
2023-01-25T00:40:42.501Z,9.93
2023-01-25T00:41:45.554Z,9.70
2023-01-25T00:42:48.531Z,10.13
2023-01-25T00:43:51.395Z,10.18
2023-01-25T00:44:54.388Z,10.70
2023-01-25T00:46:03.320Z,11.00
2023-01-25T00:47:06.841Z,10.32
2023-01-25T00:48:09.903Z,11.23
2023-01-25T00:49:31.954Z,10.38
2023-01-25T00:51:39.793Z,9.68
2023-01-25T00:52:42.789Z,9.95
2023-01-25T00:53:45.943Z,9.93
2023-01-25T00:54:49.078Z,10.20
2023-01-25T00:55:55.202Z,10.65
2023-01-25T00:57:01.951Z,10.65
2023-01-25T00:58:05.074Z,10.95
2023-01-25T00:59:08.326Z,10.40
2023-01-25T01:00:13.944Z,9.98
2023-01-25T01:01:19.200Z,9.98
2023-01-25T01:02:22.368Z,11.70
2023-01-25T01:03:25.444Z,9.88
2023-01-25T01:04:28.545Z,10.95
2023-01-25T01:05:31.509Z,9.93
2023-01-25T01:06:41.930Z,10.68
2023-01-25T01:07:44.985Z,10.32
2023-01-25T01:08:48.541Z,10.32
2023-01-25T01:09:51.496Z,10.38
2023-01-25T01:11:00.634Z,10.38
2023-01-25T01:12:03.826Z,10.18
2023-01-25T01:13:06.972Z,10.48
2023-01-25T01:14:09.972Z,10.48
2023-01-25T01:15:13.118Z,10.40
2023-01-25T01:16:17.213Z,9.50
2023-01-25T01:17:20.535Z,10.82
2023-01-25T01:18:25.062Z,10.20
2023-01-25T01:19:27.977Z,10.57
2023-01-25T01:20:30.887Z,9.65
2023-01-25T01:21:33.977Z,9.45
2023-01-25T01:22:36.941Z,10.30
2023-01-25T01:23:41.087Z,9.30
2023-01-25T01:24:44.105Z,9.23
2023-01-25T01:25:47.623Z,8.77
2023-01-25T01:26:50.711Z,9.75
2023-01-25T01:27:53.624Z,9.57
2023-01-25T01:28:57.906Z,8.95
2023-01-25T01:30:01.424Z,9.05
2023-01-25T01:31:07.140Z,9.25
2023-01-25T01:32:10.163Z,9.10
2023-01-25T01:33:13.223Z,8.93
2023-01-25T01:34:16.346Z,8.32
2023-01-25T01:35:19.386Z,8.38
2023-01-25T01:36:26.459Z,8.25
2023-01-25T01:37:29.558Z,7.90
2023-01-25T01:38:33.330Z,7.57
2023-01-25T01:39:36.300Z,8.57
2023-01-25T01:40:45.471Z,6.90
2023-01-25T01:41:48.435Z,6.70
2023-01-25T01:43:06.981Z,7.53
2023-01-25T01:44:17.832Z,6.68
2023-01-25T01:45:46.035Z,7.30
2023-01-25T01:46:56.429Z,6.72
2023-01-25T01:47:59.567Z,6.68
2023-01-25T01:49:25.603Z,7.32
2023-01-25T01:50:29.158Z,6.32
2023-01-25T01:51:41.379Z,5.80
2023-01-25T01:52:44.552Z,7.22
2023-01-25T01:54:00.325Z,6.57
2023-01-25T01:55:15.143Z,5.85
2023-01-25T01:56:28.021Z,6.50
2023-01-25T01:57:53.935Z,6.12
2023-01-25T01:58:59.613Z,5.82
2023-01-25T02:00:19.562Z,6.68
2023-01-25T02:01:22.612Z,6.53
2023-01-25T02:02:27.201Z,6.25
2023-01-25T02:03:31.708Z,5.87
2023-01-25T02:04:34.767Z,5.72
2023-01-25T02:05:47.328Z,6.25
2023-01-25T02:07:11.700Z,5.72
2023-01-25T02:08:16.132Z,6.07
2023-01-25T02:09:24.198Z,6.53
2023-01-25T02:10:28.667Z,5.50
2023-01-25T02:11:34.317Z,6.65
2023-01-25T02:12:38.697Z,5.87
2023-01-25T02:13:41.869Z,5.75
2023-01-25T02:14:51.694Z,6.18
2023-01-25T02:15:57.101Z,5.85
2023-01-25T02:17:00.902Z,6.75
2023-01-25T02:18:04.153Z,6.03
2023-01-25T02:19:13.750Z,5.70
2023-01-25T02:20:26.990Z,5.93
2023-01-25T02:21:37.321Z,6.05
2023-01-25T02:22:47.385Z,6.18
2023-01-25T02:24:01.742Z,6.00
2023-01-25T02:25:12.696Z,5.15
2023-01-25T02:26:18.434Z,5.37
2023-01-25T02:27:22.148Z,5.85
2023-01-25T02:28:34.737Z,5.50
2023-01-25T02:29:38.962Z,5.45
2023-01-25T02:30:43.457Z,5.87
2023-01-25T02:31:49.865Z,6.07
2023-01-25T02:32:52.899Z,6.15
2023-01-25T02:33:55.916Z,5.65
2023-01-25T02:34:58.894Z,5.15
2023-01-25T02:36:07.567Z,6.20
2023-01-25T02:37:15.289Z,5.97
2023-01-25T02:38:21.466Z,5.53
2023-01-25T02:39:26.870Z,5.05
2023-01-25T02:40:36.941Z,5.47
2023-01-25T02:41:43.111Z,5.57
2023-01-25T02:42:46.777Z,5.25
2023-01-25T02:43:52.944Z,5.47
2023-01-25T02:44:55.853Z,5.60
2023-01-25T02:46:12.282Z,5.62
2023-01-25T02:47:18.939Z,5.70
2023-01-25T02:48:22.420Z,5.15
2023-01-25T02:49:25.859Z,5.87
2023-01-25T02:50:32.139Z,6.20
2023-01-25T02:51:38.288Z,6.25
2023-01-25T02:52:41.344Z,6.07
2023-01-25T02:53:44.331Z,5.53
2023-01-25T02:54:47.186Z,6.53
2023-01-25T02:55:50.119Z,6.25
2023-01-25T02:56:53.132Z,6.53
2023-01-25T02:57:56.106Z,5.72
2023-01-25T02:58:59.738Z,6.22
2023-01-25T03:00:04.130Z,6.10
2023-01-25T03:01:12.271Z,5.55
2023-01-25T03:02:15.304Z,5.15
2023-01-25T03:03:18.339Z,6.18
2023-01-25T03:04:21.309Z,6.18
2023-01-25T03:05:24.210Z,6.45
2023-01-25T03:06:27.354Z,6.03
2023-01-25T03:07:30.239Z,6.28
2023-01-25T03:08:35.643Z,6.40
2023-01-25T03:09:38.618Z,6.00
2023-01-25T03:10:41.714Z,5.68
2023-01-25T03:11:44.644Z,5.82
2023-01-25T03:12:47.602Z,5.70
2023-01-25T03:13:50.512Z,5.78
2023-01-25T03:14:53.792Z,6.43
2023-01-25T03:16:12.568Z,7.00
2023-01-25T03:17:15.646Z,7.10
2023-01-25T03:18:18.767Z,5.75
2023-01-25T03:19:22.588Z,6.80
2023-01-25T03:20:25.615Z,7.65
2023-01-25T03:21:28.635Z,6.82
2023-01-25T03:22:31.874Z,6.68
2023-01-25T03:23:35.349Z,6.72
2023-01-25T03:24:38.372Z,7.10
2023-01-25T03:25:41.517Z,7.45
2023-01-25T03:27:03.075Z,7.68
2023-01-25T03:28:06.201Z,7.45
2023-01-25T03:29:09.190Z,7.12
2023-01-25T03:30:12.737Z,8.18
2023-01-25T03:31:17.205Z,7.87
2023-01-25T03:32:20.367Z,7.82
2023-01-25T03:33:23.559Z,8.20
2023-01-25T03:34:26.620Z,6.70
2023-01-25T03:35:29.617Z,7.68
2023-01-25T03:36:32.609Z,7.55
2023-01-25T03:37:35.537Z,6.80
2023-01-25T03:38:39.020Z,7.62
2023-01-25T03:39:47.902Z,7.43
2023-01-25T03:40:54.098Z,6.90
2023-01-25T03:41:57.175Z,8.20
2023-01-25T03:43:00.020Z,7.68
2023-01-25T03:44:02.944Z,8.02
2023-01-25T03:45:06.585Z,7.85
2023-01-25T03:46:09.771Z,7.72
2023-01-25T03:47:12.799Z,7.30
2023-01-25T03:48:15.822Z,8.48
2023-01-25T03:49:18.942Z,7.40
2023-01-25T03:50:22.158Z,7.25
2023-01-25T03:51:25.344Z,7.70
2023-01-25T03:52:30.333Z,8.45
2023-01-25T03:53:33.317Z,7.90
2023-01-25T03:54:36.177Z,7.00
2023-01-25T03:55:39.030Z,8.18
2023-01-25T03:56:41.991Z,7.85
2023-01-25T03:57:45.065Z,7.40
2023-01-25T03:58:51.975Z,8.65
2023-01-25T03:59:55.399Z,7.75
2023-01-25T04:01:00.243Z,7.70
2023-01-25T04:02:03.255Z,7.68
2023-01-25T04:03:06.138Z,7.75
2023-01-25T04:04:09.024Z,8.85
2023-01-25T04:05:12.187Z,7.70
2023-01-25T04:06:20.873Z,7.53
2023-01-25T04:07:24.284Z,8.02
2023-01-25T04:08:31.951Z,7.53
2023-01-25T04:09:35.670Z,7.43
2023-01-25T04:10:38.696Z,8.10
2023-01-25T04:11:41.854Z,7.45
2023-01-25T04:12:44.695Z,9.38
2023-01-25T04:13:47.961Z,7.70
2023-01-25T04:14:52.096Z,7.60
2023-01-25T04:15:55.181Z,8.57
2023-01-25T04:16:58.970Z,7.20
2023-01-25T04:18:02.335Z,7.28
2023-01-25T04:19:08.043Z,8.02
2023-01-25T04:20:12.304Z,8.40
2023-01-25T04:21:17.027Z,7.65
2023-01-25T04:22:19.997Z,8.13
2023-01-25T04:23:24.212Z,8.02
2023-01-25T04:24:27.072Z,7.62
2023-01-25T04:25:30.055Z,7.68
2023-01-25T04:26:33.051Z,7.45
2023-01-25T04:27:36.053Z,8.32
2023-01-25T04:28:39.200Z,7.40
2023-01-25T04:29:42.263Z,7.65
2023-01-25T04:30:45.483Z,7.57
2023-01-25T04:31:48.793Z,7.62
2023-01-25T04:32:51.983Z,7.62
2023-01-25T04:33:56.109Z,7.28
2023-01-25T04:34:59.084Z,7.55
2023-01-25T04:36:02.463Z,7.30
2023-01-25T04:37:05.476Z,7.90
2023-01-25T04:38:11.083Z,8.05
2023-01-25T04:39:14.286Z,8.02
2023-01-25T04:40:17.463Z,7.75
2023-01-25T04:41:21.387Z,7.82
2023-01-25T04:42:24.260Z,6.87
2023-01-25T04:43:27.419Z,7.10
2023-01-25T04:44:30.430Z,7.68
2023-01-25T04:45:34.106Z,8.07
2023-01-25T04:46:37.013Z,7.37
2023-01-25T04:47:40.263Z,7.10
2023-01-25T04:48:43.310Z,7.72
2023-01-25T04:49:46.305Z,8.13
2023-01-25T04:50:49.405Z,6.65
2023-01-25T04:51:52.547Z,7.70
2023-01-25T04:52:55.655Z,6.37
2023-01-25T04:53:58.585Z,7.93
2023-01-25T04:55:01.523Z,7.10
2023-01-25T04:56:04.827Z,7.40
2023-01-25T04:57:07.738Z,7.75
2023-01-25T04:58:12.071Z,8.93
2023-01-25T04:59:15.995Z,8.40
2023-01-25T05:00:20.495Z,8.45
2023-01-25T05:01:23.669Z,7.25
2023-01-25T05:02:28.035Z,8.52
2023-01-25T05:03:31.220Z,7.30
2023-01-25T05:04:34.194Z,7.57
2023-01-25T05:05:37.239Z,7.47
2023-01-25T05:06:40.217Z,8.30
2023-01-25T05:07:43.571Z,8.00
2023-01-25T05:08:47.537Z,8.15
2023-01-25T05:09:50.626Z,8.05
2023-01-25T05:10:53.577Z,9.35
2023-01-25T05:11:56.437Z,9.15
2023-01-25T05:12:59.364Z,9.00
2023-01-25T05:14:02.437Z,9.02
2023-01-25T05:15:06.563Z,9.35
2023-01-25T05:16:09.909Z,8.73
2023-01-25T05:17:12.847Z,9.40
2023-01-25T05:18:16.117Z,9.40
2023-01-25T05:19:19.140Z,10.43
2023-01-25T05:20:22.076Z,9.43
2023-01-25T05:21:45.233Z,8.85
2023-01-25T05:22:48.293Z,9.48
2023-01-25T05:23:51.352Z,9.73
2023-01-25T05:24:54.711Z,10.25
2023-01-25T05:26:16.341Z,8.85
2023-01-25T05:27:20.836Z,10.55
2023-01-25T05:28:30.451Z,10.07
2023-01-25T05:29:38.743Z,9.90
2023-01-25T05:30:41.613Z,10.88
2023-01-25T05:31:44.733Z,10.27
2023-01-25T05:32:50.320Z,9.98
2023-01-25T05:33:53.280Z,9.98
2023-01-25T05:34:56.385Z,9.93
2023-01-25T05:35:59.505Z,10.07
2023-01-25T05:37:03.454Z,10.57
2023-01-25T05:38:06.750Z,9.88
2023-01-25T05:39:10.354Z,9.77
2023-01-25T05:40:13.664Z,10.32
2023-01-25T05:41:16.857Z,10.38
2023-01-25T05:42:20.015Z,11.18
2023-01-25T05:43:24.713Z,9.98
2023-01-25T05:44:28.605Z,10.73
2023-01-25T05:45:31.592Z,10.43
2023-01-25T05:46:34.455Z,10.63
2023-01-25T05:47:37.619Z,9.85
2023-01-25T05:48:43.401Z,10.25
2023-01-25T05:49:46.984Z,9.93
2023-01-25T05:50:49.896Z,9.35
2023-01-25T05:51:52.906Z,10.20
2023-01-25T05:52:55.788Z,9.98
2023-01-25T05:53:58.857Z,10.23
2023-01-25T05:55:01.713Z,9.93
2023-01-25T05:56:10.554Z,9.68
2023-01-25T05:57:14.837Z,9.88
2023-01-25T05:58:17.808Z,8.98
2023-01-25T05:59:20.809Z,8.88
2023-01-25T06:00:24.281Z,8.45
2023-01-25T06:01:28.210Z,10.55
2023-01-25T06:02:32.608Z,9.45
2023-01-25T06:03:35.822Z,8.60
2023-01-25T06:04:38.869Z,8.75
2023-01-25T06:05:42.037Z,8.98
2023-01-25T06:06:45.236Z,9.27
2023-01-25T06:07:48.271Z,9.07
2023-01-25T06:08:51.547Z,9.30
2023-01-25T06:09:58.145Z,8.60
2023-01-25T06:11:10.558Z,8.68
2023-01-25T06:12:13.472Z,7.97
2023-01-25T06:13:16.697Z,8.45
2023-01-25T06:14:19.597Z,7.97
2023-01-25T06:15:22.527Z,8.13
2023-01-25T06:16:25.446Z,8.07
2023-01-25T06:17:28.323Z,7.97
2023-01-25T06:18:33.201Z,6.90
2023-01-25T06:19:36.179Z,8.50
2023-01-25T06:20:39.959Z,8.15
2023-01-25T06:21:42.839Z,6.97
2023-01-25T06:22:50.815Z,8.30
2023-01-25T06:23:54.346Z,7.22
2023-01-25T06:24:57.346Z,7.55
2023-01-25T06:26:06.203Z,7.70
2023-01-25T06:27:09.126Z,7.68
2023-01-25T06:28:11.992Z,7.55
2023-01-25T06:29:14.888Z,8.07
2023-01-25T06:30:17.969Z,7.80
2023-01-25T06:31:21.343Z,7.87
2023-01-25T06:32:26.360Z,7.62
2023-01-25T06:33:29.205Z,7.55
2023-01-25T06:34:32.137Z,7.82
2023-01-25T06:35:35.187Z,7.85
2023-01-25T06:36:38.120Z,8.27
2023-01-25T06:37:41.160Z,7.57
2023-01-25T06:38:48.040Z,7.25
2023-01-25T06:39:51.280Z,8.55
2023-01-25T06:40:54.301Z,7.95
2023-01-25T06:41:57.139Z,7.97
2023-01-25T06:43:10.517Z,7.82
2023-01-25T06:44:13.310Z,8.13
2023-01-25T06:45:16.431Z,8.02
2023-01-25T06:46:20.658Z,7.65
2023-01-25T06:47:23.745Z,7.95
2023-01-25T06:48:27.143Z,7.53
2023-01-25T06:49:30.502Z,7.72
2023-01-25T06:50:33.451Z,7.25
2023-01-25T06:51:36.313Z,8.00
2023-01-25T06:52:39.348Z,9.18
2023-01-25T06:53:44.230Z,7.95
2023-01-25T06:54:47.124Z,8.82
2023-01-25T06:55:57.572Z,7.60
2023-01-25T06:57:00.711Z,8.77
2023-01-25T06:58:03.974Z,8.18
2023-01-25T06:59:09.345Z,9.02
2023-01-25T07:00:12.721Z,7.55
2023-01-25T07:01:21.676Z,8.23
2023-01-25T07:02:24.916Z,8.63
2023-01-25T07:03:29.000Z,8.98
2023-01-25T07:04:33.172Z,8.52
2023-01-25T07:05:36.237Z,8.38
2023-01-25T07:06:39.943Z,8.38
2023-01-25T07:07:47.397Z,8.38
2023-01-25T07:08:51.793Z,7.85
2023-01-25T07:09:54.862Z,8.02
2023-01-25T07:11:00.181Z,7.60
2023-01-25T07:12:04.963Z,7.85
2023-01-25T07:13:07.822Z,8.02
2023-01-25T07:14:10.708Z,7.28
2023-01-25T07:15:13.659Z,7.57
2023-01-25T07:16:19.946Z,8.35
2023-01-25T07:17:23.143Z,8.02
2023-01-25T07:18:28.920Z,7.57
2023-01-25T07:19:32.162Z,7.53
2023-01-25T07:20:35.134Z,7.45
2023-01-25T07:21:38.281Z,7.87
2023-01-25T07:22:41.301Z,8.63
2023-01-25T07:23:45.166Z,8.38
2023-01-25T07:24:51.082Z,7.82
2023-01-25T07:25:54.219Z,8.30
2023-01-25T07:26:57.512Z,7.82
2023-01-25T07:28:00.525Z,8.40
2023-01-25T07:29:03.810Z,8.18
2023-01-25T07:30:07.218Z,8.95
2023-01-25T07:31:12.363Z,8.48
2023-01-25T07:32:15.276Z,7.93
2023-01-25T07:33:18.506Z,8.65
2023-01-25T07:34:21.558Z,7.70
2023-01-25T07:35:24.499Z,7.93
2023-01-25T07:36:27.591Z,7.87
2023-01-25T07:37:30.478Z,7.75
2023-01-25T07:38:34.020Z,8.52
2023-01-25T07:39:37.132Z,7.55
2023-01-25T07:40:40.192Z,8.13
2023-01-25T07:41:43.144Z,7.60
2023-01-25T07:42:46.263Z,8.73
2023-01-25T07:43:49.342Z,8.07
2023-01-25T07:44:52.181Z,7.57
2023-01-25T07:46:00.404Z,8.18
2023-01-25T07:47:03.416Z,7.35
2023-01-25T07:48:12.230Z,7.55
2023-01-25T07:49:16.084Z,7.28
2023-01-25T07:50:19.031Z,7.07
2023-01-25T07:51:23.361Z,7.00
2023-01-25T07:52:26.821Z,7.53
2023-01-25T07:53:29.634Z,7.25
2023-01-25T07:54:32.576Z,7.68
2023-01-25T07:55:35.890Z,7.45
2023-01-25T07:56:41.024Z,7.65
2023-01-25T07:57:44.024Z,7.30
2023-01-25T07:58:49.381Z,6.60
2023-01-25T07:59:52.218Z,5.85
2023-01-25T08:00:55.320Z,7.30
2023-01-25T08:01:58.293Z,6.72
2023-01-25T08:03:01.453Z,7.43
2023-01-25T08:04:05.161Z,6.78
2023-01-25T08:05:08.769Z,6.97
2023-01-25T08:06:12.773Z,6.15
2023-01-25T08:07:15.724Z,7.60
2023-01-25T08:08:18.930Z,6.70
2023-01-25T08:09:21.994Z,6.95
2023-01-25T08:10:24.964Z,7.57
2023-01-25T08:11:30.968Z,6.57
2023-01-25T08:12:34.679Z,6.85
2023-01-25T08:13:38.111Z,7.00
2023-01-25T08:14:42.237Z,6.43
2023-01-25T08:15:45.192Z,6.45
2023-01-25T08:16:48.380Z,6.47
2023-01-25T08:17:51.515Z,6.25
2023-01-25T08:18:59.169Z,6.05
2023-01-25T08:20:02.260Z,7.00
2023-01-25T08:21:05.620Z,6.35
2023-01-25T08:22:09.313Z,6.35
2023-01-25T08:23:12.382Z,6.53
2023-01-25T08:24:20.666Z,6.68
2023-01-25T08:25:23.559Z,6.22
2023-01-25T08:26:27.531Z,6.90
2023-01-25T08:27:30.458Z,6.60
2023-01-25T08:28:34.376Z,6.43
2023-01-25T08:29:37.453Z,6.40
2023-01-25T08:30:52.040Z,6.18
2023-01-25T08:31:59.579Z,5.62
2023-01-25T08:33:02.744Z,6.90
2023-01-25T08:34:06.994Z,6.87
2023-01-25T08:35:10.393Z,6.97
2023-01-25T08:36:15.364Z,7.05
2023-01-25T08:37:18.415Z,5.80
2023-01-25T08:38:21.443Z,6.15
2023-01-25T08:39:24.619Z,6.37
2023-01-25T08:40:27.574Z,6.32
2023-01-25T08:41:31.976Z,5.50
2023-01-25T08:42:37.919Z,6.47
2023-01-25T08:43:40.852Z,6.72
2023-01-25T08:44:43.882Z,5.75
2023-01-25T08:45:46.759Z,5.90
2023-01-25T08:46:50.241Z,6.50
2023-01-25T08:47:53.187Z,6.32
2023-01-25T08:49:00.003Z,6.45
2023-01-25T08:50:03.221Z,6.03
2023-01-25T08:51:13.200Z,6.20
2023-01-25T08:52:16.351Z,6.25
2023-01-25T08:53:20.023Z,6.22
2023-01-25T08:54:24.842Z,7.05
2023-01-25T08:55:27.794Z,6.82
2023-01-25T08:56:30.708Z,6.37
2023-01-25T08:57:33.784Z,6.87
2023-01-25T08:58:44.679Z,6.75
2023-01-25T08:59:48.072Z,6.43
2023-01-25T09:00:51.086Z,6.62
2023-01-25T09:01:54.141Z,7.80
2023-01-25T09:02:56.930Z,6.97
2023-01-25T09:03:59.829Z,7.15
2023-01-25T09:05:02.821Z,6.93
2023-01-25T09:06:06.546Z,6.97
2023-01-25T09:07:09.288Z,6.50
2023-01-25T09:08:14.033Z,7.43
2023-01-25T09:09:17.864Z,6.80
2023-01-25T09:10:20.895Z,6.97
2023-01-25T09:11:24.674Z,6.68
2023-01-25T09:12:27.733Z,7.07
2023-01-25T09:13:31.287Z,7.78
2023-01-25T09:14:34.151Z,8.02
2023-01-25T09:15:37.006Z,6.72
2023-01-25T09:16:39.911Z,7.30
2023-01-25T09:17:42.873Z,7.55
2023-01-25T09:18:46.174Z,8.32
2023-01-25T09:20:57.342Z,7.65
2023-01-25T09:22:00.509Z,8.48
2023-01-25T09:23:03.360Z,8.07
2023-01-25T09:24:07.921Z,8.20
2023-01-25T09:25:15.164Z,8.65
2023-01-25T09:26:19.196Z,9.15
2023-01-25T09:27:22.161Z,6.72
2023-01-25T09:28:27.948Z,8.48
2023-01-25T09:29:31.641Z,8.18
2023-01-25T09:30:46.215Z,8.55
2023-01-25T09:31:51.930Z,8.82
2023-01-25T09:32:54.847Z,8.80
2023-01-25T09:33:58.656Z,9.90
2023-01-25T09:35:01.463Z,8.02
2023-01-25T09:36:05.289Z,9.23
2023-01-25T09:37:08.420Z,10.15
2023-01-25T09:38:11.589Z,9.77
2023-01-25T09:39:20.959Z,9.27
2023-01-25T09:40:28.941Z,9.43
2023-01-25T09:41:37.860Z,8.82
2023-01-25T09:43:03.762Z,9.60
2023-01-25T09:44:24.422Z,8.73
2023-01-25T09:45:36.731Z,9.15
2023-01-25T09:46:45.720Z,8.73
2023-01-25T09:48:18.725Z,8.48
2023-01-25T09:49:36.671Z,8.77
2023-01-25T09:50:45.641Z,9.63
2023-01-25T09:52:08.761Z,9.00
2023-01-25T09:53:17.498Z,9.15
2023-01-25T09:54:21.120Z,8.80
2023-01-25T09:55:28.458Z,8.98
2023-01-25T09:56:35.965Z,9.82
2023-01-25T09:57:42.284Z,9.25
2023-01-25T09:58:49.215Z,8.95
2023-01-25T09:59:54.790Z,9.63
2023-01-25T10:01:37.464Z,10.10
2023-01-25T10:02:53.417Z,9.18
2023-01-25T10:04:07.468Z,10.07
2023-01-25T10:05:21.165Z,10.05
2023-01-25T10:06:36.372Z,10.60
2023-01-25T10:07:49.003Z,11.15
2023-01-25T10:09:08.952Z,10.57
2023-01-25T10:10:18.984Z,10.05
2023-01-25T10:11:34.729Z,9.98
2023-01-25T10:12:39.430Z,9.30
2023-01-25T10:13:43.795Z,9.73
2023-01-25T10:14:47.937Z,9.30
2023-01-25T10:15:56.395Z,9.40
2023-01-25T10:17:08.417Z,9.63
2023-01-25T10:18:18.982Z,9.93
2023-01-25T10:19:39.305Z,9.60
2023-01-25T10:21:24.263Z,9.82
2023-01-25T10:22:45.223Z,10.43
2023-01-25T10:24:12.539Z,10.40
2023-01-25T10:25:28.519Z,9.93
2023-01-25T10:26:36.212Z,10.30
2023-01-25T10:28:01.807Z,9.80
2023-01-25T10:29:13.634Z,9.95
2023-01-25T10:31:44.731Z,8.88
2023-01-25T10:32:55.960Z,9.70
2023-01-25T10:34:02.373Z,10.07
2023-01-25T10:35:34.785Z,9.43
2023-01-25T10:36:42.542Z,9.60
2023-01-25T10:37:46.345Z,10.27
2023-01-25T10:38:59.615Z,10.00
2023-01-25T10:40:18.822Z,10.10
2023-01-25T10:41:43.479Z,11.18
2023-01-25T10:42:51.766Z,10.35
2023-01-25T10:44:14.013Z,10.55
2023-01-25T10:45:17.906Z,10.65
2023-01-25T10:46:26.277Z,11.38
2023-01-25T10:47:34.482Z,11.05
2023-01-25T10:48:39.735Z,11.77
2023-01-25T10:49:48.217Z,10.60
2023-01-25T10:50:57.689Z,9.75
2023-01-25T10:52:24.873Z,10.80
2023-01-25T10:53:45.141Z,10.73
2023-01-25T10:54:52.877Z,9.30
2023-01-25T10:56:00.780Z,10.55
2023-01-25T10:57:08.047Z,10.32
2023-01-25T10:58:34.961Z,10.02
2023-01-25T10:59:38.455Z,9.88
2023-01-25T11:00:41.873Z,8.38
2023-01-25T11:01:45.587Z,9.57
2023-01-25T11:02:48.921Z,11.50
2023-01-25T11:03:52.285Z,11.00
2023-01-25T11:04:55.296Z,10.30
2023-01-25T11:05:59.625Z,10.85
2023-01-25T11:07:06.301Z,10.65
2023-01-25T11:08:25.080Z,10.20
2023-01-25T11:09:32.769Z,9.63
2023-01-25T11:10:38.213Z,10.50
2023-01-25T11:11:41.670Z,11.40
2023-01-25T11:12:44.801Z,11.80
2023-01-25T11:13:47.935Z,9.95
2023-01-25T11:14:50.972Z,10.07
2023-01-25T11:16:02.033Z,11.10
2023-01-25T11:17:06.565Z,10.40
2023-01-25T11:18:28.830Z,11.00
2023-01-25T11:19:33.742Z,10.82
2023-01-25T11:20:36.765Z,11.40
2023-01-25T11:21:53.401Z,10.15
2023-01-25T11:22:57.730Z,10.45
2023-01-25T11:24:06.032Z,10.30
2023-01-25T11:25:32.151Z,9.25
2023-01-25T11:26:39.989Z,10.48
2023-01-25T11:27:43.030Z,10.55
2023-01-25T11:28:51.227Z,11.20
2023-01-25T11:30:07.474Z,11.07
2023-01-25T11:31:14.927Z,10.35
2023-01-25T11:32:21.977Z,10.52
2023-01-25T11:33:26.967Z,10.07
2023-01-25T11:34:30.615Z,11.23
2023-01-25T11:35:36.405Z,11.05
2023-01-25T11:37:08.379Z,10.95
2023-01-25T11:38:14.421Z,9.98
2023-01-25T11:39:36.268Z,11.10
2023-01-25T11:40:58.065Z,10.82
2023-01-25T11:42:13.874Z,10.50
2023-01-25T11:43:38.620Z,10.57
2023-01-25T11:44:47.213Z,10.32
2023-01-25T11:46:05.448Z,10.68
2023-01-25T11:47:20.039Z,9.32
2023-01-25T11:48:46.795Z,9.57
2023-01-25T11:50:08.761Z,10.10
2023-01-25T11:51:33.713Z,10.30
2023-01-25T11:53:03.613Z,9.65
2023-01-25T11:54:25.185Z,10.98
2023-01-25T11:56:07.212Z,9.35
2023-01-25T11:57:37.067Z,10.55
2023-01-25T11:58:57.783Z,9.68
2023-01-25T12:00:19.329Z,10.20
2023-01-25T12:01:43.048Z,10.52
2023-01-25T12:02:51.513Z,10.07
2023-01-25T12:04:25.060Z,10.55
2023-01-25T12:05:49.187Z,9.82
2023-01-25T12:07:00.568Z,9.10
2023-01-25T12:08:19.023Z,9.68
2023-01-25T12:09:30.647Z,9.48
2023-01-25T12:10:43.910Z,10.88
2023-01-25T12:11:56.153Z,9.93
2023-01-25T12:13:31.411Z,10.07
2023-01-25T12:15:22.890Z,10.40
2023-01-25T12:16:31.996Z,10.25
2023-01-25T12:17:34.855Z,11.07
2023-01-25T12:18:43.769Z,9.65
2023-01-25T12:20:26.527Z,10.07
2023-01-25T12:22:59.389Z,9.67
2023-01-25T12:24:11.590Z,10.32
2023-01-25T12:25:24.390Z,10.40
2023-01-25T12:26:56.428Z,10.73
2023-01-25T12:28:15.526Z,10.57
2023-01-25T12:29:37.417Z,10.52
2023-01-25T12:32:31.905Z,10.00
2023-01-25T12:33:48.100Z,10.93
2023-01-25T12:35:16.448Z,10.95
2023-01-25T12:36:29.867Z,10.75
2023-01-25T12:37:40.337Z,12.32
2023-01-25T12:39:02.944Z,10.32
2023-01-25T12:40:15.812Z,11.45
2023-01-25T12:41:54.463Z,10.98
2023-01-25T12:43:01.861Z,10.50
2023-01-25T12:44:29.917Z,11.57
2023-01-25T12:45:38.172Z,10.90
2023-01-25T12:46:46.545Z,11.40
2023-01-25T12:48:14.553Z,12.07
2023-01-25T12:50:15.134Z,11.43
2023-01-25T12:51:20.631Z,11.68
2023-01-25T12:52:43.182Z,11.02
2023-01-25T12:53:52.480Z,12.77
2023-01-25T12:55:00.730Z,11.90
2023-01-25T12:56:07.872Z,11.43
2023-01-25T12:57:48.002Z,12.25
2023-01-25T12:58:57.000Z,12.00
2023-01-25T13:00:17.354Z,12.90
2023-01-25T13:01:24.859Z,11.27
2023-01-25T13:03:02.625Z,12.10
2023-01-25T13:04:14.653Z,11.48
2023-01-25T13:05:24.008Z,12.10
2023-01-25T13:06:49.448Z,12.10
2023-01-25T13:08:04.275Z,12.70
2023-01-25T13:09:19.116Z,12.37
2023-01-25T13:10:30.775Z,12.37
2023-01-25T13:11:43.030Z,11.10
2023-01-25T13:12:59.020Z,11.70
2023-01-25T13:14:18.261Z,12.85
2023-01-25T13:15:35.412Z,11.45
2023-01-25T13:16:43.503Z,12.55
2023-01-25T13:17:47.726Z,11.95
2023-01-25T13:18:50.989Z,11.88
2023-01-25T13:19:54.636Z,12.70
2023-01-25T13:20:59.683Z,12.57
2023-01-25T13:22:02.995Z,11.88
2023-01-25T13:23:25.813Z,12.80
2023-01-25T13:24:31.228Z,11.90
2023-01-25T13:25:34.139Z,12.35
2023-01-25T13:26:38.772Z,11.75
2023-01-25T13:27:41.810Z,11.65
2023-01-25T13:28:46.970Z,11.45
2023-01-25T13:30:01.078Z,11.75
2023-01-25T13:31:04.108Z,12.75
2023-01-25T13:32:36.496Z,12.70
2023-01-25T13:33:39.608Z,11.15
2023-01-25T13:34:42.884Z,11.95
2023-01-25T13:35:46.077Z,12.15
2023-01-25T13:36:54.358Z,12.23
2023-01-25T13:38:02.737Z,12.73
2023-01-25T13:39:30.007Z,11.88
2023-01-25T13:40:38.673Z,11.07
2023-01-25T13:42:03.945Z,12.57
2023-01-25T13:43:19.736Z,11.40
2023-01-25T13:44:28.796Z,13.18
2023-01-25T13:45:36.403Z,12.95
2023-01-25T13:46:39.740Z,11.15
2023-01-25T13:47:45.804Z,11.88
2023-01-25T13:49:04.969Z,13.13
2023-01-25T13:50:27.151Z,11.25
2023-01-25T13:51:34.722Z,11.63
2023-01-25T13:52:37.769Z,11.55
2023-01-25T13:53:41.194Z,11.25
2023-01-25T13:54:49.169Z,12.15
2023-01-25T13:55:57.769Z,11.68
2023-01-25T13:57:14.278Z,12.07
2023-01-25T13:58:29.798Z,11.25
2023-01-25T13:59:32.723Z,11.10
2023-01-25T14:00:36.398Z,11.68
2023-01-25T14:01:40.445Z,10.70
2023-01-25T14:02:47.206Z,11.12
2023-01-25T14:03:53.468Z,11.12
2023-01-25T14:04:57.242Z,11.18
2023-01-25T14:06:03.149Z,10.90
2023-01-25T14:07:10.245Z,10.40
2023-01-25T14:08:13.596Z,9.95
2023-01-25T14:09:22.871Z,9.93
2023-01-25T14:10:28.103Z,9.65
2023-01-25T14:11:35.065Z,9.70
2023-01-25T14:12:46.100Z,10.27
2023-01-25T14:14:11.894Z,10.68
2023-01-25T14:15:29.864Z,9.10
2023-01-25T14:16:33.139Z,11.12
2023-01-25T14:17:36.259Z,10.90
2023-01-25T14:18:43.415Z,11.25
2023-01-25T14:19:56.401Z,10.52
2023-01-25T14:21:17.909Z,11.00
2023-01-25T14:22:22.382Z,9.95
2023-01-25T14:23:29.536Z,10.18
2023-01-25T14:24:32.531Z,10.20
2023-01-25T14:25:35.394Z,10.48
2023-01-25T14:26:42.187Z,10.75
2023-01-25T14:27:51.145Z,10.48
2023-01-25T14:29:01.640Z,10.77
2023-01-25T14:30:06.331Z,10.88
2023-01-25T14:31:35.868Z,9.70
2023-01-25T14:32:41.969Z,11.23
2023-01-25T14:33:48.092Z,10.32
2023-01-25T14:34:51.137Z,10.95
2023-01-25T14:36:01.652Z,10.65
2023-01-25T14:37:22.624Z,9.82
2023-01-25T14:38:38.075Z,10.25
2023-01-25T14:39:41.239Z,11.02
2023-01-25T14:40:46.185Z,10.18
2023-01-25T14:42:00.781Z,10.45
2023-01-25T14:43:04.708Z,10.27
2023-01-25T14:44:13.578Z,10.65
2023-01-25T14:45:19.139Z,10.80
2023-01-25T14:46:26.485Z,11.35
2023-01-25T14:47:32.192Z,10.88
2023-01-25T14:48:40.678Z,10.50
2023-01-25T14:49:43.748Z,10.27
2023-01-25T14:50:47.177Z,10.27
2023-01-25T14:52:15.863Z,11.27
2023-01-25T14:53:28.997Z,10.88
2023-01-25T14:54:59.633Z,10.57